sensor_id;sensor_type;location;lat;lon;timestamp;P1;durP1;ratioP1;P2;durP2;ratioP2
75035;SDS011;64247;51.540;5.854;2023-04-25T00:01:13;2.45;;;1.73;;
75035;SDS011;64247;51.540;5.854;2023-04-25T00:03:14;3.10;;;1.80;;
75035;SDS011;64247;51.540;5.854;2023-04-25T00:05:16;12.35;;;2.60;;
75035;SDS011;64247;51.540;5.854;2023-04-25T00:07:17;2.97;;;1.50;;
75035;SDS011;64247;51.540;5.854;2023-04-25T00:09:18;5.93;;;1.55;;
75035;SDS011;64247;51.540;5.854;2023-04-25T00:11:19;2.10;;;1.77;;
75035;SDS011;64247;51.540;5.854;2023-04-25T00:13:20;2.03;;;1.67;;
75035;SDS011;64247;51.540;5.854;2023-04-25T00:15:22;7.22;;;2.10;;
75035;SDS011;64247;51.540;5.854;2023-04-25T00:17:23;3.55;;;1.75;;
75035;SDS011;64247;51.540;5.854;2023-04-25T00:19:27;4.88;;;1.52;;
75035;SDS011;64247;51.540;5.854;2023-04-25T00:21:28;2.17;;;1.73;;
75035;SDS011;64247;51.540;5.854;2023-04-25T00:23:31;4.65;;;2.08;;
75035;SDS011;64247;51.540;5.854;2023-04-25T00:25:32;7.88;;;2.22;;
75035;SDS011;64247;51.540;5.854;2023-04-25T00:27:33;7.30;;;2.30;;
75035;SDS011;64247;51.540;5.854;2023-04-25T00:29:34;4.53;;;1.55;;
75035;SDS011;64247;51.540;5.854;2023-04-25T00:31:35;4.03;;;1.80;;
75035;SDS011;64247;51.540;5.854;2023-04-25T00:33:36;3.78;;;2.05;;
75035;SDS011;64247;51.540;5.854;2023-04-25T00:37:38;2.90;;;1.42;;
75035;SDS011;64247;51.540;5.854;2023-04-25T00:39:40;3.17;;;2.15;;
75035;SDS011;64247;51.540;5.854;2023-04-25T00:41:40;6.22;;;1.20;;
75035;SDS011;64247;51.540;5.854;2023-04-25T00:43:41;4.15;;;1.55;;
75035;SDS011;64247;51.540;5.854;2023-04-25T00:45:45;5.88;;;2.25;;
75035;SDS011;64247;51.540;5.854;2023-04-25T00:47:48;3.42;;;1.98;;
75035;SDS011;64247;51.540;5.854;2023-04-25T00:49:49;3.28;;;1.30;;
75035;SDS011;64247;51.540;5.854;2023-04-25T00:51:50;4.15;;;1.77;;
75035;SDS011;64247;51.540;5.854;2023-04-25T00:53:51;8.27;;;2.13;;
75035;SDS011;64247;51.540;5.854;2023-04-25T00:55:54;2.85;;;1.77;;
75035;SDS011;64247;51.540;5.854;2023-04-25T00:57:56;1.95;;;1.25;;
75035;SDS011;64247;51.540;5.854;2023-04-25T00:59:58;5.00;;;1.90;;
75035;SDS011;64247;51.540;5.854;2023-04-25T01:01:59;3.05;;;1.80;;
75035;SDS011;64247;51.540;5.854;2023-04-25T01:04:01;8.27;;;1.88;;
75035;SDS011;64247;51.540;5.854;2023-04-25T01:06:02;2.67;;;1.23;;
75035;SDS011;64247;51.540;5.854;2023-04-25T01:08:04;11.43;;;2.60;;
75035;SDS011;64247;51.540;5.854;2023-04-25T01:10:05;3.88;;;1.42;;
75035;SDS011;64247;51.540;5.854;2023-04-25T01:12:07;10.30;;;2.85;;
75035;SDS011;64247;51.540;5.854;2023-04-25T01:14:09;3.42;;;1.75;;
75035;SDS011;64247;51.540;5.854;2023-04-25T01:16:10;5.75;;;2.22;;
75035;SDS011;64247;51.540;5.854;2023-04-25T01:18:10;3.28;;;2.15;;
75035;SDS011;64247;51.540;5.854;2023-04-25T01:20:12;15.77;;;2.83;;
75035;SDS011;64247;51.540;5.854;2023-04-25T01:22:14;7.53;;;2.05;;
75035;SDS011;64247;51.540;5.854;2023-04-25T01:24:17;5.57;;;2.53;;
75035;SDS011;64247;51.540;5.854;2023-04-25T01:26:18;4.95;;;1.83;;
75035;SDS011;64247;51.540;5.854;2023-04-25T01:28:21;4.53;;;1.88;;
75035;SDS011;64247;51.540;5.854;2023-04-25T01:30:22;5.95;;;1.60;;
75035;SDS011;64247;51.540;5.854;2023-04-25T01:32:24;8.38;;;2.58;;
75035;SDS011;64247;51.540;5.854;2023-04-25T01:34:29;8.13;;;3.20;;
75035;SDS011;64247;51.540;5.854;2023-04-25T01:36:32;7.72;;;1.40;;
75035;SDS011;64247;51.540;5.854;2023-04-25T01:38:34;2.20;;;1.10;;
75035;SDS011;64247;51.540;5.854;2023-04-25T01:40:37;5.55;;;1.20;;
75035;SDS011;64247;51.540;5.854;2023-04-25T01:42:42;3.65;;;1.88;;
75035;SDS011;64247;51.540;5.854;2023-04-25T01:44:44;3.30;;;1.65;;
75035;SDS011;64247;51.540;5.854;2023-04-25T01:48:45;6.95;;;1.52;;
75035;SDS011;64247;51.540;5.854;2023-04-25T01:50:47;4.30;;;1.17;;
75035;SDS011;64247;51.540;5.854;2023-04-25T01:52:48;10.15;;;2.55;;
75035;SDS011;64247;51.540;5.854;2023-04-25T01:54:50;8.48;;;1.85;;
75035;SDS011;64247;51.540;5.854;2023-04-25T01:56:52;6.20;;;1.98;;
75035;SDS011;64247;51.540;5.854;2023-04-25T01:58:55;3.60;;;1.95;;
75035;SDS011;64247;51.540;5.854;2023-04-25T02:01:23;6.65;;;2.55;;
75035;SDS011;64247;51.540;5.854;2023-04-25T02:03:42;6.97;;;2.45;;
75035;SDS011;64247;51.540;5.854;2023-04-25T02:06:02;7.30;;;2.20;;
75035;SDS011;64247;51.540;5.854;2023-04-25T02:08:05;6.72;;;2.08;;
75035;SDS011;64247;51.540;5.854;2023-04-25T02:10:08;12.98;;;2.58;;
75035;SDS011;64247;51.540;5.854;2023-04-25T02:12:17;7.22;;;2.95;;
75035;SDS011;64247;51.540;5.854;2023-04-25T02:14:44;10.05;;;2.80;;
75035;SDS011;64247;51.540;5.854;2023-04-25T02:17:05;7.47;;;2.45;;
75035;SDS011;64247;51.540;5.854;2023-04-25T02:19:06;8.73;;;2.40;;
75035;SDS011;64247;51.540;5.854;2023-04-25T02:21:07;10.27;;;2.55;;
75035;SDS011;64247;51.540;5.854;2023-04-25T02:23:08;6.47;;;2.65;;
75035;SDS011;64247;51.540;5.854;2023-04-25T02:25:09;9.20;;;2.38;;
75035;SDS011;64247;51.540;5.854;2023-04-25T02:27:12;6.78;;;1.48;;
75035;SDS011;64247;51.540;5.854;2023-04-25T02:29:12;8.70;;;2.38;;
75035;SDS011;64247;51.540;5.854;2023-04-25T02:31:16;11.95;;;2.05;;
75035;SDS011;64247;51.540;5.854;2023-04-25T02:35:18;6.72;;;2.50;;
75035;SDS011;64247;51.540;5.854;2023-04-25T02:37:19;6.32;;;2.55;;
75035;SDS011;64247;51.540;5.854;2023-04-25T02:39:20;10.10;;;2.95;;
75035;SDS011;64247;51.540;5.854;2023-04-25T02:41:23;9.88;;;2.25;;
75035;SDS011;64247;51.540;5.854;2023-04-25T02:43:24;4.90;;;1.83;;
75035;SDS011;64247;51.540;5.854;2023-04-25T02:45:26;7.15;;;2.75;;
75035;SDS011;64247;51.540;5.854;2023-04-25T02:47:27;5.97;;;1.42;;
75035;SDS011;64247;51.540;5.854;2023-04-25T02:49:28;4.22;;;2.05;;
75035;SDS011;64247;51.540;5.854;2023-04-25T02:51:29;5.75;;;2.28;;
75035;SDS011;64247;51.540;5.854;2023-04-25T02:53:30;11.70;;;2.50;;
75035;SDS011;64247;51.540;5.854;2023-04-25T02:57:35;7.93;;;2.47;;
75035;SDS011;64247;51.540;5.854;2023-04-25T03:01:36;10.27;;;2.50;;
75035;SDS011;64247;51.540;5.854;2023-04-25T03:05:38;3.30;;;2.15;;
75035;SDS011;64247;51.540;5.854;2023-04-25T03:07:39;6.57;;;2.85;;
75035;SDS011;64247;51.540;5.854;2023-04-25T03:09:40;13.23;;;3.25;;
75035;SDS011;64247;51.540;5.854;2023-04-25T03:11:41;12.05;;;3.13;;
75035;SDS011;64247;51.540;5.854;2023-04-25T03:13:43;12.55;;;2.78;;
75035;SDS011;64247;51.540;5.854;2023-04-25T03:15:45;7.30;;;2.60;;
75035;SDS011;64247;51.540;5.854;2023-04-25T03:17:46;10.13;;;3.10;;
75035;SDS011;64247;51.540;5.854;2023-04-25T03:19:47;11.70;;;3.15;;
75035;SDS011;64247;51.540;5.854;2023-04-25T03:21:48;12.40;;;2.63;;
75035;SDS011;64247;51.540;5.854;2023-04-25T03:23:49;7.28;;;2.92;;
75035;SDS011;64247;51.540;5.854;2023-04-25T03:25:50;8.05;;;3.65;;
75035;SDS011;64247;51.540;5.854;2023-04-25T03:27:51;8.55;;;3.63;;
75035;SDS011;64247;51.540;5.854;2023-04-25T03:31:53;3.60;;;1.83;;
75035;SDS011;64247;51.540;5.854;2023-04-25T03:33:53;11.15;;;3.28;;
75035;SDS011;64247;51.540;5.854;2023-04-25T03:35:56;9.75;;;3.10;;
75035;SDS011;64247;51.540;5.854;2023-04-25T03:37:57;11.82;;;3.42;;
75035;SDS011;64247;51.540;5.854;2023-04-25T03:40:03;10.95;;;3.50;;
75035;SDS011;64247;51.540;5.854;2023-04-25T03:42:24;8.10;;;2.70;;
75035;SDS011;64247;51.540;5.854;2023-04-25T03:44:25;9.43;;;3.40;;
75035;SDS011;64247;51.540;5.854;2023-04-25T03:48:27;7.57;;;2.90;;
75035;SDS011;64247;51.540;5.854;2023-04-25T03:52:29;8.57;;;3.03;;
75035;SDS011;64247;51.540;5.854;2023-04-25T03:54:30;9.45;;;3.38;;
75035;SDS011;64247;51.540;5.854;2023-04-25T03:56:39;6.35;;;3.40;;
75035;SDS011;64247;51.540;5.854;2023-04-25T03:58:50;7.20;;;2.80;;
75035;SDS011;64247;51.540;5.854;2023-04-25T04:00:53;10.82;;;3.60;;
75035;SDS011;64247;51.540;5.854;2023-04-25T04:02:54;10.90;;;3.00;;
75035;SDS011;64247;51.540;5.854;2023-04-25T04:06:56;7.32;;;2.60;;
75035;SDS011;64247;51.540;5.854;2023-04-25T04:09:00;7.10;;;3.15;;
75035;SDS011;64247;51.540;5.854;2023-04-25T04:11:01;12.73;;;3.85;;
75035;SDS011;64247;51.540;5.854;2023-04-25T04:13:02;13.43;;;3.75;;
75035;SDS011;64247;51.540;5.854;2023-04-25T04:17:06;12.13;;;3.60;;
75035;SDS011;64247;51.540;5.854;2023-04-25T04:19:08;12.70;;;3.33;;
75035;SDS011;64247;51.540;5.854;2023-04-25T04:21:09;12.15;;;4.03;;
75035;SDS011;64247;51.540;5.854;2023-04-25T04:23:13;7.13;;;2.97;;
75035;SDS011;64247;51.540;5.854;2023-04-25T04:25:14;11.48;;;2.92;;
75035;SDS011;64247;51.540;5.854;2023-04-25T04:27:34;11.75;;;2.92;;
75035;SDS011;64247;51.540;5.854;2023-04-25T04:29:55;7.15;;;3.40;;
75035;SDS011;64247;51.540;5.854;2023-04-25T04:32:12;15.40;;;4.13;;
75035;SDS011;64247;51.540;5.854;2023-04-25T04:34:15;10.65;;;3.55;;
75035;SDS011;64247;51.540;5.854;2023-04-25T04:36:16;10.15;;;3.72;;
75035;SDS011;64247;51.540;5.854;2023-04-25T04:38:20;13.10;;;4.47;;
75035;SDS011;64247;51.540;5.854;2023-04-25T04:40:21;12.77;;;3.92;;
75035;SDS011;64247;51.540;5.854;2023-04-25T04:42:28;10.43;;;4.07;;
75035;SDS011;64247;51.540;5.854;2023-04-25T04:47:03;6.72;;;3.60;;
75035;SDS011;64247;51.540;5.854;2023-04-25T04:49:26;19.08;;;4.10;;
75035;SDS011;64247;51.540;5.854;2023-04-25T04:51:46;7.30;;;2.83;;
75035;SDS011;64247;51.540;5.854;2023-04-25T04:54:06;11.43;;;3.28;;
75035;SDS011;64247;51.540;5.854;2023-04-25T04:56:25;10.00;;;2.65;;
75035;SDS011;64247;51.540;5.854;2023-04-25T04:58:39;12.20;;;3.20;;
75035;SDS011;64247;51.540;5.854;2023-04-25T05:01:00;7.80;;;3.30;;
75035;SDS011;64247;51.540;5.854;2023-04-25T05:03:23;11.90;;;4.07;;
75035;SDS011;64247;51.540;5.854;2023-04-25T05:05:42;8.20;;;2.58;;
75035;SDS011;64247;51.540;5.854;2023-04-25T05:08:06;10.00;;;2.75;;
75035;SDS011;64247;51.540;5.854;2023-04-25T05:10:26;13.20;;;4.18;;
75035;SDS011;64247;51.540;5.854;2023-04-25T05:12:50;7.82;;;3.20;;
75035;SDS011;64247;51.540;5.854;2023-04-25T05:15:10;12.38;;;2.90;;
75035;SDS011;64247;51.540;5.854;2023-04-25T05:17:26;12.90;;;2.80;;
75035;SDS011;64247;51.540;5.854;2023-04-25T05:19:36;11.27;;;3.03;;
75035;SDS011;64247;51.540;5.854;2023-04-25T05:21:55;9.55;;;2.78;;
75035;SDS011;64247;51.540;5.854;2023-04-25T05:24:31;7.70;;;3.05;;
75035;SDS011;64247;51.540;5.854;2023-04-25T05:26:57;4.18;;;1.33;;
75035;SDS011;64247;51.540;5.854;2023-04-25T05:29:17;20.17;;;4.35;;
75035;SDS011;64247;51.540;5.854;2023-04-25T05:31:38;6.30;;;2.72;;
75035;SDS011;64247;51.540;5.854;2023-04-25T05:33:43;6.68;;;2.88;;
75035;SDS011;64247;51.540;5.854;2023-04-25T05:35:44;12.05;;;4.00;;
75035;SDS011;64247;51.540;5.854;2023-04-25T05:37:46;9.80;;;4.95;;
75035;SDS011;64247;51.540;5.854;2023-04-25T05:39:48;11.73;;;2.65;;
75035;SDS011;64247;51.540;5.854;2023-04-25T05:42:00;8.07;;;3.38;;
75035;SDS011;64247;51.540;5.854;2023-04-25T05:44:19;7.50;;;2.35;;
75035;SDS011;64247;51.540;5.854;2023-04-25T05:46:33;9.68;;;2.72;;
75035;SDS011;64247;51.540;5.854;2023-04-25T05:49:00;7.00;;;3.35;;
75035;SDS011;64247;51.540;5.854;2023-04-25T05:51:29;8.68;;;2.65;;
75035;SDS011;64247;51.540;5.854;2023-04-25T05:53:54;11.60;;;2.97;;
75035;SDS011;64247;51.540;5.854;2023-04-25T05:55:55;12.20;;;3.63;;
75035;SDS011;64247;51.540;5.854;2023-04-25T05:57:59;16.27;;;3.90;;
75035;SDS011;64247;51.540;5.854;2023-04-25T06:00:00;9.80;;;3.15;;
75035;SDS011;64247;51.540;5.854;2023-04-25T06:02:21;14.93;;;3.03;;
75035;SDS011;64247;51.540;5.854;2023-04-25T06:04:24;6.15;;;2.83;;
75035;SDS011;64247;51.540;5.854;2023-04-25T06:06:25;6.38;;;2.75;;
75035;SDS011;64247;51.540;5.854;2023-04-25T06:08:27;6.22;;;3.15;;
75035;SDS011;64247;51.540;5.854;2023-04-25T06:10:28;7.80;;;3.10;;
75035;SDS011;64247;51.540;5.854;2023-04-25T06:12:29;12.90;;;3.42;;
75035;SDS011;64247;51.540;5.854;2023-04-25T06:14:31;10.15;;;3.17;;
75035;SDS011;64247;51.540;5.854;2023-04-25T06:16:32;5.47;;;2.10;;
75035;SDS011;64247;51.540;5.854;2023-04-25T06:18:33;5.65;;;1.95;;
75035;SDS011;64247;51.540;5.854;2023-04-25T06:20:34;6.20;;;2.08;;
75035;SDS011;64247;51.540;5.854;2023-04-25T06:22:35;5.07;;;2.72;;
75035;SDS011;64247;51.540;5.854;2023-04-25T06:24:36;11.27;;;2.97;;
75035;SDS011;64247;51.540;5.854;2023-04-25T06:26:38;12.57;;;2.90;;
75035;SDS011;64247;51.540;5.854;2023-04-25T06:28:40;6.10;;;2.92;;
75035;SDS011;64247;51.540;5.854;2023-04-25T06:30:41;7.65;;;2.40;;
75035;SDS011;64247;51.540;5.854;2023-04-25T06:32:45;7.80;;;3.08;;
75035;SDS011;64247;51.540;5.854;2023-04-25T06:34:46;5.68;;;1.77;;
75035;SDS011;64247;51.540;5.854;2023-04-25T06:36:47;10.05;;;3.78;;
75035;SDS011;64247;51.540;5.854;2023-04-25T06:38:50;8.85;;;2.58;;
75035;SDS011;64247;51.540;5.854;2023-04-25T06:40:52;11.63;;;3.22;;
75035;SDS011;64247;51.540;5.854;2023-04-25T06:42:53;8.48;;;2.83;;
75035;SDS011;64247;51.540;5.854;2023-04-25T06:45:07;6.40;;;2.35;;
75035;SDS011;64247;51.540;5.854;2023-04-25T06:47:09;5.05;;;2.40;;
75035;SDS011;64247;51.540;5.854;2023-04-25T06:49:10;8.25;;;2.42;;
75035;SDS011;64247;51.540;5.854;2023-04-25T06:51:12;3.67;;;2.00;;
75035;SDS011;64247;51.540;5.854;2023-04-25T06:53:13;5.30;;;2.47;;
75035;SDS011;64247;51.540;5.854;2023-04-25T06:55:17;11.30;;;2.80;;
75035;SDS011;64247;51.540;5.854;2023-04-25T06:57:37;6.13;;;2.42;;
75035;SDS011;64247;51.540;5.854;2023-04-25T07:00:16;7.07;;;2.35;;
75035;SDS011;64247;51.540;5.854;2023-04-25T07:02:18;4.38;;;2.08;;
75035;SDS011;64247;51.540;5.854;2023-04-25T07:04:19;6.95;;;2.00;;
75035;SDS011;64247;51.540;5.854;2023-04-25T07:06:24;5.15;;;3.05;;
75035;SDS011;64247;51.540;5.854;2023-04-25T07:08:28;8.00;;;1.67;;
75035;SDS011;64247;51.540;5.854;2023-04-25T07:10:31;5.13;;;1.33;;
75035;SDS011;64247;51.540;5.854;2023-04-25T07:12:32;9.52;;;1.92;;
75035;SDS011;64247;51.540;5.854;2023-04-25T07:14:33;6.82;;;2.28;;
75035;SDS011;64247;51.540;5.854;2023-04-25T07:16:34;7.18;;;2.75;;
75035;SDS011;64247;51.540;5.854;2023-04-25T07:18:36;5.85;;;1.52;;
75035;SDS011;64247;51.540;5.854;2023-04-25T07:20:37;2.70;;;1.77;;
75035;SDS011;64247;51.540;5.854;2023-04-25T07:22:38;6.10;;;2.20;;
75035;SDS011;64247;51.540;5.854;2023-04-25T07:24:39;4.95;;;1.58;;
75035;SDS011;64247;51.540;5.854;2023-04-25T07:26:41;6.40;;;1.77;;
75035;SDS011;64247;51.540;5.854;2023-04-25T07:29:05;7.07;;;2.30;;
75035;SDS011;64247;51.540;5.854;2023-04-25T07:31:06;3.45;;;1.70;;
75035;SDS011;64247;51.540;5.854;2023-04-25T07:33:07;6.60;;;2.00;;
75035;SDS011;64247;51.540;5.854;2023-04-25T07:35:08;7.55;;;1.98;;
75035;SDS011;64247;51.540;5.854;2023-04-25T07:37:09;4.15;;;1.77;;
75035;SDS011;64247;51.540;5.854;2023-04-25T07:39:21;5.50;;;2.58;;
75035;SDS011;64247;51.540;5.854;2023-04-25T07:41:23;9.60;;;3.05;;
75035;SDS011;64247;51.540;5.854;2023-04-25T07:43:24;7.43;;;2.00;;
75035;SDS011;64247;51.540;5.854;2023-04-25T07:45:32;16.60;;;2.33;;
75035;SDS011;64247;51.540;5.854;2023-04-25T07:47:33;5.55;;;2.00;;
75035;SDS011;64247;51.540;5.854;2023-04-25T07:49:34;10.60;;;2.08;;
75035;SDS011;64247;51.540;5.854;2023-04-25T07:51:36;6.88;;;2.42;;
75035;SDS011;64247;51.540;5.854;2023-04-25T07:53:42;6.50;;;2.53;;
75035;SDS011;64247;51.540;5.854;2023-04-25T07:55:46;5.63;;;1.80;;
75035;SDS011;64247;51.540;5.854;2023-04-25T07:57:51;5.82;;;1.80;;
75035;SDS011;64247;51.540;5.854;2023-04-25T07:59:52;3.13;;;1.75;;
75035;SDS011;64247;51.540;5.854;2023-04-25T08:01:54;3.13;;;1.13;;
75035;SDS011;64247;51.540;5.854;2023-04-25T08:03:55;2.72;;;1.52;;
75035;SDS011;64247;51.540;5.854;2023-04-25T08:06:03;4.95;;;1.58;;
75035;SDS011;64247;51.540;5.854;2023-04-25T08:08:07;9.20;;;1.80;;
75035;SDS011;64247;51.540;5.854;2023-04-25T08:10:09;5.45;;;2.08;;
75035;SDS011;64247;51.540;5.854;2023-04-25T08:12:10;7.13;;;1.60;;
75035;SDS011;64247;51.540;5.854;2023-04-25T08:14:11;4.00;;;1.52;;
75035;SDS011;64247;51.540;5.854;2023-04-25T08:16:14;3.65;;;1.23;;
75035;SDS011;64247;51.540;5.854;2023-04-25T08:18:16;4.90;;;1.10;;
75035;SDS011;64247;51.540;5.854;2023-04-25T08:20:17;4.93;;;1.10;;
75035;SDS011;64247;51.540;5.854;2023-04-25T08:22:18;4.50;;;1.75;;
75035;SDS011;64247;51.540;5.854;2023-04-25T08:24:28;3.40;;;1.70;;
75035;SDS011;64247;51.540;5.854;2023-04-25T08:26:29;4.10;;;1.40;;
75035;SDS011;64247;51.540;5.854;2023-04-25T08:28:31;6.93;;;1.77;;
75035;SDS011;64247;51.540;5.854;2023-04-25T08:30:34;3.63;;;1.45;;
75035;SDS011;64247;51.540;5.854;2023-04-25T08:32:35;3.63;;;1.50;;
75035;SDS011;64247;51.540;5.854;2023-04-25T08:34:59;3.72;;;1.40;;
75035;SDS011;64247;51.540;5.854;2023-04-25T08:37:00;6.90;;;1.75;;
75035;SDS011;64247;51.540;5.854;2023-04-25T08:39:13;6.30;;;1.90;;
75035;SDS011;64247;51.540;5.854;2023-04-25T08:41:22;8.10;;;2.08;;
75035;SDS011;64247;51.540;5.854;2023-04-25T08:43:24;6.65;;;1.73;;
75035;SDS011;64247;51.540;5.854;2023-04-25T08:45:26;4.15;;;0.98;;
75035;SDS011;64247;51.540;5.854;2023-04-25T08:47:30;9.45;;;1.50;;
75035;SDS011;64247;51.540;5.854;2023-04-25T08:49:34;7.22;;;1.05;;
75035;SDS011;64247;51.540;5.854;2023-04-25T08:51:38;4.80;;;1.02;;
75035;SDS011;64247;51.540;5.854;2023-04-25T08:53:54;6.65;;;1.30;;
75035;SDS011;64247;51.540;5.854;2023-04-25T08:56:03;2.03;;;0.77;;
75035;SDS011;64247;51.540;5.854;2023-04-25T08:58:09;3.42;;;0.98;;
75035;SDS011;64247;51.540;5.854;2023-04-25T09:00:13;3.10;;;1.00;;
75035;SDS011;64247;51.540;5.854;2023-04-25T09:02:17;3.63;;;0.80;;
75035;SDS011;64247;51.540;5.854;2023-04-25T09:04:22;3.67;;;1.15;;
75035;SDS011;64247;51.540;5.854;2023-04-25T09:06:24;4.15;;;0.98;;
75035;SDS011;64247;51.540;5.854;2023-04-25T09:08:25;2.92;;;0.80;;
75035;SDS011;64247;51.540;5.854;2023-04-25T09:10:26;6.47;;;1.17;;
75035;SDS011;64247;51.540;5.854;2023-04-25T09:12:30;5.72;;;1.27;;
75035;SDS011;64247;51.540;5.854;2023-04-25T09:14:32;3.72;;;0.80;;
75035;SDS011;64247;51.540;5.854;2023-04-25T09:19:24;5.65;;;0.60;;
75035;SDS011;64247;51.540;5.854;2023-04-25T09:23:31;5.25;;;0.73;;
75035;SDS011;64247;51.540;5.854;2023-04-25T09:25:47;7.03;;;1.83;;
75035;SDS011;64247;51.540;5.854;2023-04-25T09:27:54;2.20;;;0.80;;
75035;SDS011;64247;51.540;5.854;2023-04-25T09:30:02;7.72;;;1.30;;
75035;SDS011;64247;51.540;5.854;2023-04-25T09:32:27;4.38;;;0.75;;
75035;SDS011;64247;51.540;5.854;2023-04-25T09:34:34;12.23;;;1.35;;
75035;SDS011;64247;51.540;5.854;2023-04-25T09:36:44;1.17;;;0.70;;
75035;SDS011;64247;51.540;5.854;2023-04-25T09:39:11;4.07;;;0.95;;
75035;SDS011;64247;51.540;5.854;2023-04-25T09:41:22;3.65;;;1.20;;
75035;SDS011;64247;51.540;5.854;2023-04-25T09:43:25;4.15;;;0.90;;
75035;SDS011;64247;51.540;5.854;2023-04-25T09:45:26;2.08;;;0.88;;
75035;SDS011;64247;51.540;5.854;2023-04-25T09:47:33;5.78;;;0.93;;
75035;SDS011;64247;51.540;5.854;2023-04-25T09:49:40;3.90;;;1.30;;
75035;SDS011;64247;51.540;5.854;2023-04-25T09:51:53;4.03;;;1.30;;
75035;SDS011;64247;51.540;5.854;2023-04-25T09:53:56;2.65;;;0.98;;
75035;SDS011;64247;51.540;5.854;2023-04-25T09:56:17;3.05;;;0.65;;
75035;SDS011;64247;51.540;5.854;2023-04-25T09:58:23;5.22;;;1.20;;
75035;SDS011;64247;51.540;5.854;2023-04-25T10:00:26;4.88;;;2.05;;
75035;SDS011;64247;51.540;5.854;2023-04-25T10:02:27;4.15;;;1.02;;
75035;SDS011;64247;51.540;5.854;2023-04-25T10:04:34;4.53;;;0.80;;
75035;SDS011;64247;51.540;5.854;2023-04-25T10:07:03;1.58;;;0.75;;
75035;SDS011;64247;51.540;5.854;2023-04-25T10:09:07;4.00;;;1.05;;
75035;SDS011;64247;51.540;5.854;2023-04-25T10:11:08;1.13;;;0.82;;
75035;SDS011;64247;51.540;5.854;2023-04-25T10:13:10;1.10;;;0.70;;
75035;SDS011;64247;51.540;5.854;2023-04-25T10:15:12;2.03;;;0.65;;
75035;SDS011;64247;51.540;5.854;2023-04-25T10:17:15;1.63;;;1.20;;
75035;SDS011;64247;51.540;5.854;2023-04-25T10:19:18;0.63;;;0.38;;
75035;SDS011;64247;51.540;5.854;2023-04-25T10:21:19;0.45;;;0.40;;
75035;SDS011;64247;51.540;5.854;2023-04-25T10:23:23;2.03;;;0.63;;
75035;SDS011;64247;51.540;5.854;2023-04-25T10:25:25;0.95;;;0.65;;
75035;SDS011;64247;51.540;5.854;2023-04-25T10:27:27;1.80;;;1.17;;
75035;SDS011;64247;51.540;5.854;2023-04-25T10:29:28;1.58;;;1.30;;
75035;SDS011;64247;51.540;5.854;2023-04-25T10:31:29;6.75;;;1.35;;
75035;SDS011;64247;51.540;5.854;2023-04-25T10:33:35;4.28;;;1.20;;
75035;SDS011;64247;51.540;5.854;2023-04-25T10:35:43;1.38;;;0.75;;
75035;SDS011;64247;51.540;5.854;2023-04-25T10:40:26;0.65;;;0.47;;
75035;SDS011;64247;51.540;5.854;2023-04-25T10:42:28;2.47;;;0.82;;
75035;SDS011;64247;51.540;5.854;2023-04-25T10:44:30;0.88;;;0.88;;
75035;SDS011;64247;51.540;5.854;2023-04-25T10:46:32;4.45;;;0.95;;
75035;SDS011;64247;51.540;5.854;2023-04-25T10:48:35;2.35;;;1.35;;
75035;SDS011;64247;51.540;5.854;2023-04-25T10:50:38;2.60;;;0.60;;
75035;SDS011;64247;51.540;5.854;2023-04-25T10:52:40;4.25;;;1.15;;
75035;SDS011;64247;51.540;5.854;2023-04-25T10:54:47;2.38;;;1.25;;
75035;SDS011;64247;51.540;5.854;2023-04-25T10:56:52;1.52;;;0.75;;
75035;SDS011;64247;51.540;5.854;2023-04-25T10:59:26;4.88;;;1.00;;
75035;SDS011;64247;51.540;5.854;2023-04-25T11:01:25;2.80;;;1.00;;
75035;SDS011;64247;51.540;5.854;2023-04-25T11:03:26;3.35;;;1.05;;
75035;SDS011;64247;51.540;5.854;2023-04-25T11:05:31;1.98;;;0.77;;
75035;SDS011;64247;51.540;5.854;2023-04-25T11:07:39;4.50;;;1.50;;
75035;SDS011;64247;51.540;5.854;2023-04-25T11:09:52;3.00;;;1.10;;
75035;SDS011;64247;51.540;5.854;2023-04-25T11:11:54;4.72;;;1.15;;
75035;SDS011;64247;51.540;5.854;2023-04-25T11:13:57;1.70;;;1.13;;
75035;SDS011;64247;51.540;5.854;2023-04-25T11:16:01;4.97;;;0.98;;
75035;SDS011;64247;51.540;5.854;2023-04-25T11:18:02;3.40;;;1.13;;
75035;SDS011;64247;51.540;5.854;2023-04-25T11:20:04;3.95;;;1.05;;
75035;SDS011;64247;51.540;5.854;2023-04-25T11:22:11;3.08;;;1.05;;
75035;SDS011;64247;51.540;5.854;2023-04-25T11:24:12;3.03;;;1.23;;
75035;SDS011;64247;51.540;5.854;2023-04-25T11:26:13;3.00;;;1.05;;
75035;SDS011;64247;51.540;5.854;2023-04-25T11:28:20;6.57;;;1.33;;
75035;SDS011;64247;51.540;5.854;2023-04-25T11:30:25;3.88;;;1.25;;
75035;SDS011;64247;51.540;5.854;2023-04-25T11:32:27;3.58;;;1.05;;
75035;SDS011;64247;51.540;5.854;2023-04-25T11:34:29;4.65;;;1.58;;
75035;SDS011;64247;51.540;5.854;2023-04-25T11:36:32;3.20;;;1.23;;
75035;SDS011;64247;51.540;5.854;2023-04-25T11:38:33;3.40;;;0.90;;
75035;SDS011;64247;51.540;5.854;2023-04-25T11:40:35;3.63;;;0.82;;
75035;SDS011;64247;51.540;5.854;2023-04-25T11:42:43;1.40;;;1.20;;
75035;SDS011;64247;51.540;5.854;2023-04-25T11:44:46;2.70;;;0.90;;
75035;SDS011;64247;51.540;5.854;2023-04-25T11:46:47;3.85;;;0.60;;
75035;SDS011;64247;51.540;5.854;2023-04-25T11:48:49;1.38;;;0.52;;
75035;SDS011;64247;51.540;5.854;2023-04-25T11:50:50;1.27;;;0.57;;
75035;SDS011;64247;51.540;5.854;2023-04-25T11:52:51;2.58;;;0.77;;
75035;SDS011;64247;51.540;5.854;2023-04-25T11:54:57;3.65;;;0.90;;
75035;SDS011;64247;51.540;5.854;2023-04-25T11:56:58;1.38;;;0.70;;
75035;SDS011;64247;51.540;5.854;2023-04-25T11:59:02;4.25;;;1.23;;
75035;SDS011;64247;51.540;5.854;2023-04-25T12:01:06;0.88;;;0.80;;
75035;SDS011;64247;51.540;5.854;2023-04-25T12:03:08;1.80;;;0.68;;
75035;SDS011;64247;51.540;5.854;2023-04-25T12:05:10;3.85;;;0.82;;
75035;SDS011;64247;51.540;5.854;2023-04-25T12:07:13;1.63;;;1.35;;
75035;SDS011;64247;51.540;5.854;2023-04-25T12:09:14;2.17;;;0.88;;
75035;SDS011;64247;51.540;5.854;2023-04-25T12:11:21;1.75;;;0.70;;
75035;SDS011;64247;51.540;5.854;2023-04-25T12:13:23;3.97;;;1.10;;
75035;SDS011;64247;51.540;5.854;2023-04-25T12:15:26;1.77;;;0.85;;
75035;SDS011;64247;51.540;5.854;2023-04-25T12:17:28;3.00;;;1.05;;
75035;SDS011;64247;51.540;5.854;2023-04-25T12:19:33;1.95;;;0.95;;
75035;SDS011;64247;51.540;5.854;2023-04-25T12:23:38;1.40;;;0.77;;
75035;SDS011;64247;51.540;5.854;2023-04-25T12:25:41;2.88;;;1.00;;
75035;SDS011;64247;51.540;5.854;2023-04-25T12:27:45;3.45;;;0.90;;
75035;SDS011;64247;51.540;5.854;2023-04-25T12:29:55;2.28;;;0.80;;
75035;SDS011;64247;51.540;5.854;2023-04-25T12:31:57;3.58;;;0.90;;
75035;SDS011;64247;51.540;5.854;2023-04-25T12:33:58;6.03;;;0.85;;
75035;SDS011;64247;51.540;5.854;2023-04-25T12:36:00;2.33;;;0.95;;
75035;SDS011;64247;51.540;5.854;2023-04-25T12:38:08;1.40;;;0.90;;
75035;SDS011;64247;51.540;5.854;2023-04-25T12:40:09;1.40;;;0.98;;
75035;SDS011;64247;51.540;5.854;2023-04-25T12:42:10;5.28;;;1.35;;
75035;SDS011;64247;51.540;5.854;2023-04-25T12:44:14;0.95;;;0.52;;
75035;SDS011;64247;51.540;5.854;2023-04-25T12:46:15;2.53;;;0.80;;
75035;SDS011;64247;51.540;5.854;2023-04-25T12:48:16;2.05;;;0.70;;
75035;SDS011;64247;51.540;5.854;2023-04-25T12:50:18;1.63;;;0.47;;
75035;SDS011;64247;51.540;5.854;2023-04-25T12:52:19;2.05;;;0.60;;
75035;SDS011;64247;51.540;5.854;2023-04-25T12:54:20;1.42;;;0.52;;
75035;SDS011;64247;51.540;5.854;2023-04-25T12:56:21;1.83;;;0.60;;
75035;SDS011;64247;51.540;5.854;2023-04-25T12:58:22;3.55;;;0.40;;
75035;SDS011;64247;51.540;5.854;2023-04-25T13:00:23;0.47;;;0.40;;
75035;SDS011;64247;51.540;5.854;2023-04-25T13:02:24;1.70;;;0.50;;
75035;SDS011;64247;51.540;5.854;2023-04-25T13:04:26;0.50;;;0.43;;
75035;SDS011;64247;51.540;5.854;2023-04-25T13:06:26;0.35;;;0.35;;